Terminal Aerodrome Forecast
Issued by NWS

Current Version | Previous Version | Text Only | Print | Product List | Glossary Off
Versions: 1 2 3 4 5 6 7 8 9 10 11 12 13 14 15 16 17 18 19 20 21 22 23 24 25

000
FTUS41 KILN 050300 AAC
TAFLCK
TAF AMD
KLCK 050358Z 0504/0524 33012G18KT P6SM -SN SCT013 BKN023 OVC045
     FM050600 33010KT P6SM SCT018 OVC060
     FM051300 33010KT P6SM BKN025=

USA.gov is the U.S. government's official web portal to all federal, state and local government web resources and services.